Time;durP1;ratioP1;P1;durP2;ratioP2;P2;SDS_P1;SDS_P2;PMS_P1;PMS_P2;Temp;Humidity;BMP_temperature;BMP_pressure;BME280_temperature;BME280_humidity;BME280_pressure;Samples;Min_cycle;Max_cycle;Signal;HPM_P1;HPM_P2
2023/05/12 00:02:35;;;;;;;8.70;7.80;;;;;;;-146.18;100.00;67994.34;10229116;28;20141;-68
2023/05/12 00:07:31;;;;;;;11.50;9.15;;;;;;;-146.18;100.00;67994.34;10236379;28;20140;-69
2023/05/12 00:12:31;;;;;;;8.40;7.70;;;;;;;-146.18;100.00;67994.34;10232701;28;20495;-69
2023/05/12 00:17:27;;;;;;;8.70;7.90;;;;;;;-146.18;100.00;67994.34;10234218;28;20046;-69
2023/05/12 00:22:26;;;;;;;9.13;7.97;;;;;;;-146.18;100.00;67994.34;10220598;28;20076;-67
2023/05/12 00:27:22;;;;;;;10.52;7.95;;;;;;;-146.18;100.00;67994.34;10231473;28;20507;-69
2023/05/12 00:32:19;;;;;;;10.25;8.77;;;;;;;-146.18;100.00;67994.34;10231782;28;20133;-69
2023/05/12 00:37:16;;;;;;;9.48;8.35;;;;;;;-146.18;100.00;67994.34;10223041;28;20112;-68
2023/05/12 00:42:13;;;;;;;9.35;8.48;;;;;;;-146.18;100.00;67994.34;10227683;28;20076;-68
2023/05/12 00:47:09;;;;;;;8.35;7.55;;;;;;;-146.18;100.00;67994.34;10232615;28;20134;-69
2023/05/12 00:52:06;;;;;;;9.63;8.00;;;;;;;-146.18;100.00;67994.34;10234304;28;20496;-68
2023/05/12 00:57:02;;;;;;;8.68;7.75;;;;;;;-146.18;100.00;67994.34;10233830;28;20077;-68
2023/05/12 01:01:59;;;;;;;8.88;8.05;;;;;;;-146.18;100.00;67994.34;10235740;28;20076;-68
2023/05/12 01:07:02;;;;;;;8.98;7.97;;;;;;;-146.18;100.00;67994.34;10230722;28;20083;-69
2023/05/12 01:11:58;;;;;;;9.30;8.23;;;;;;;-146.18;100.00;67994.34;10229366;28;20139;-69
2023/05/12 01:16:58;;;;;;;9.27;8.38;;;;;;;-146.18;100.00;67994.34;10230101;28;20045;-69
2023/05/12 01:21:55;;;;;;;8.77;7.88;;;;;;;-146.18;100.00;67994.34;10231179;28;20041;-69
2023/05/12 01:26:52;;;;;;;8.90;8.10;;;;;;;-146.18;100.00;67994.34;10229138;28;20478;-71
2023/05/12 01:31:49;;;;;;;8.45;7.63;;;;;;;-146.18;100.00;67994.34;10229113;28;20778;-71
2023/05/12 01:36:45;;;;;;;8.90;8.05;;;;;;;-146.18;100.00;67994.34;10227899;28;20178;-71
2023/05/12 01:41:41;;;;;;;8.82;7.28;;;;;;;-146.18;100.00;67994.34;10230606;28;20067;-70
2023/05/12 01:46:38;;;;;;;9.35;8.38;;;;;;;-146.18;100.00;67994.34;10220660;28;20065;-65
2023/05/12 01:51:34;;;;;;;8.40;7.60;;;;;;;-146.18;100.00;67994.34;10236116;28;20077;-65
2023/05/12 01:56:31;;;;;;;8.75;7.93;;;;;;;-146.18;100.00;67994.34;10231209;28;20049;-66
2023/05/12 02:01:27;;;;;;;11.40;8.10;;;;;;;-146.18;100.00;67994.34;10233144;28;20521;-66
2023/05/12 02:06:25;;;;;;;8.82;7.93;;;;;;;-146.18;100.00;67994.34;10225182;28;20042;-67
2023/05/12 02:11:21;;;;;;;8.60;7.80;;;;;;;-146.18;100.00;67994.34;10240495;28;20140;-67
2023/05/12 02:16:18;;;;;;;8.35;7.43;;;;;;;-146.18;100.00;67994.34;10231798;28;20055;-68
2023/05/12 02:21:14;;;;;;;9.88;7.63;;;;;;;-146.18;100.00;67994.34;10230140;28;20096;-67
2023/05/12 02:26:11;;;;;;;8.20;7.40;;;;;;;-146.18;100.00;67994.34;10221898;28;20061;-68
2023/05/12 02:31:07;;;;;;;9.07;8.07;;;;;;;-146.18;100.00;67994.34;10227221;28;20052;-67
2023/05/12 02:36:04;;;;;;;8.38;7.32;;;;;;;-146.18;100.00;67994.34;10218852;28;20049;-67
2023/05/12 02:41:01;;;;;;;8.50;7.68;;;;;;;-146.18;100.00;67994.34;10226739;28;20084;-67
2023/05/12 02:45:57;;;;;;;7.70;7.00;;;;;;;-146.18;100.00;67994.34;10225565;28;20436;-67
2023/05/12 02:50:53;;;;;;;8.07;7.28;;;;;;;-146.18;100.00;67994.34;10232511;28;20053;-68
2023/05/12 02:55:50;;;;;;;8.68;7.53;;;;;;;-146.18;100.00;67994.34;10223923;28;20061;-68
2023/05/12 03:00:46;;;;;;;8.02;7.22;;;;;;;-146.18;100.00;67994.34;10232792;28;20069;-69
2023/05/12 03:05:52;;;;;;;8.07;7.32;;;;;;;-146.18;100.00;67994.34;10218762;28;20091;-68
2023/05/12 03:10:48;;;;;;;9.05;8.10;;;;;;;-146.18;100.00;67994.34;10235552;28;20200;-69
2023/05/12 03:15:45;;;;;;;8.55;7.85;;;;;;;-146.18;100.00;67994.34;10229991;28;20045;-66
2023/05/12 03:20:42;;;;;;;8.43;7.70;;;;;;;-146.18;100.00;67994.34;10223478;28;20065;-66
2023/05/12 03:25:38;;;;;;;10.85;7.85;;;;;;;-146.18;100.00;67994.34;10226555;28;20668;-67
2023/05/12 03:30:34;;;;;;;10.77;8.00;;;;;;;-146.18;100.00;67994.34;10219193;28;20054;-66
2023/05/12 03:35:31;;;;;;;8.63;7.82;;;;;;;-146.18;100.00;67994.34;10222285;28;20071;-66
2023/05/12 03:40:27;;;;;;;8.98;8.18;;;;;;;-146.18;100.00;67994.34;10227526;28;20504;-72
2023/05/12 03:45:24;;;;;;;8.52;7.68;;;;;;;-146.18;100.00;67994.34;10229182;28;20503;-73
2023/05/12 03:50:20;;;;;;;8.90;8.10;;;;;;;-146.18;100.00;67994.34;10218079;28;20053;-72
2023/05/12 03:55:17;;;;;;;8.48;7.78;;;;;;;-146.18;100.00;67994.34;10225948;28;20096;-73
2023/05/12 04:00:14;;;;;;;8.25;7.45;;;;;;;-146.18;100.00;67994.34;10231157;28;20050;-74
2023/05/12 04:05:10;;;;;;;9.23;8.35;;;;;;;-146.18;100.00;67994.34;10221300;28;20075;-72
2023/05/12 04:10:10;;;;;;;9.10;8.20;;;;;;;-146.18;100.00;67994.34;10237806;28;20140;-72
2023/05/12 04:15:07;;;;;;;9.60;8.80;;;;;;;-146.18;100.00;67994.34;10227966;28;20071;-72
2023/05/12 04:20:04;;;;;;;10.32;9.32;;;;;;;-146.18;100.00;67994.34;10230841;28;20144;-74
2023/05/12 04:25:00;;;;;;;9.75;8.85;;;;;;;-146.18;100.00;67994.34;10208514;28;20075;-72
2023/05/12 04:29:57;;;;;;;9.60;8.77;;;;;;;-146.18;100.00;67994.34;10228105;28;20746;-73
2023/05/12 04:34:55;;;;;;;9.75;8.93;;;;;;;-146.18;100.00;67994.34;10205023;28;20170;-72
2023/05/12 04:40:12;;;;;;;9.35;8.45;;;;;;;-146.18;100.00;67994.34;10226484;28;20065;-71
2023/05/12 04:45:10;;;;;;;9.80;9.00;;;;;;;-146.18;100.00;67994.34;10218234;28;20053;-73
2023/05/12 04:50:09;;;;;;;9.15;8.32;;;;;;;-146.18;100.00;67994.34;10236017;28;20077;-75
2023/05/12 04:55:06;;;;;;;10.13;9.00;;;;;;;-146.18;100.00;67994.34;10225473;28;20084;-75
2023/05/12 05:00:04;;;;;;;10.07;9.23;;;;;;;-146.18;100.00;67994.34;10226746;28;20104;-75
2023/05/12 05:05:00;;;;;;;10.07;9.27;;;;;;;-146.18;100.00;67994.34;10205801;28;20531;-75
2023/05/12 05:09:57;;;;;;;9.65;8.65;;;;;;;-146.18;100.00;67994.34;10219912;28;20057;-76
2023/05/12 05:14:53;;;;;;;10.23;9.43;;;;;;;-146.18;100.00;67994.34;10207881;28;20104;-75
2023/05/12 05:19:50;;;;;;;10.23;9.32;;;;;;;-146.18;100.00;67994.34;10210943;28;20065;-75
2023/05/12 05:24:55;;;;;;;11.77;10.60;;;;;;;-146.18;100.00;67994.34;10208020;28;20057;-75
2023/05/12 05:29:51;;;;;;;10.95;10.05;;;;;;;-146.18;100.00;67994.34;10198932;28;20140;-75
2023/05/12 05:34:48;;;;;;;10.65;9.75;;;;;;;-146.18;100.00;67994.34;10206940;28;20041;-75
2023/05/12 05:39:44;;;;;;;10.43;9.32;;;;;;;-146.18;100.00;67994.34;10198649;28;20125;-75
2023/05/12 05:44:43;;;;;;;10.23;9.15;;;;;;;-146.18;100.00;67994.34;10200200;28;20070;-75
2023/05/12 05:49:41;;;;;;;11.00;9.80;;;;;;;-146.18;100.00;67994.34;10192337;28;20396;-75
2023/05/12 05:54:37;;;;;;;10.38;9.48;;;;;;;-146.18;100.00;67994.34;10193902;28;20042;-75
2023/05/12 05:59:33;;;;;;;9.98;8.70;;;;;;;-146.18;100.00;67994.34;10175001;28;20085;-75
2023/05/12 06:04:30;;;;;;;9.88;9.07;;;;;;;-146.18;100.00;67994.34;10203910;28;20084;-75
2023/05/12 06:09:26;;;;;;;13.38;9.60;;;;;;;-146.18;100.00;67994.34;10232212;28;20054;-75
2023/05/12 06:14:23;;;;;;;9.20;8.40;;;;;;;-146.18;100.00;67994.34;10206085;28;20089;-75
2023/05/12 06:19:19;;;;;;;9.55;8.65;;;;;;;-146.18;100.00;67994.34;10232444;28;20061;-75
2023/05/12 06:24:16;;;;;;;10.55;8.70;;;;;;;-146.18;100.00;67994.34;10205961;28;20046;-75
2023/05/12 06:29:14;;;;;;;9.68;8.63;;;;;;;-146.18;100.00;67994.34;10231110;28;20061;-75
2023/05/12 06:34:10;;;;;;;9.43;8.55;;;;;;;-146.18;100.00;67994.34;10201347;28;20068;-75
2023/05/12 06:39:07;;;;;;;10.52;9.52;;;;;;;-146.18;100.00;67994.34;10218940;28;20045;-75
2023/05/12 06:44:05;;;;;;;9.43;8.45;;;;;;;-146.18;100.00;67994.34;10199778;28;20081;-75
2023/05/12 06:49:01;;;;;;;10.80;9.38;;;;;;;-146.18;100.00;67994.34;10211319;28;20092;-75
2023/05/12 06:53:58;;;;;;;10.75;8.98;;;;;;;-146.18;100.00;67994.34;10203586;28;20084;-76
2023/05/12 06:59:04;;;;;;;9.63;8.73;;;;;;;-146.18;100.00;67994.34;10215226;28;20137;-75
2023/05/12 07:04:00;;;;;;;10.20;9.23;;;;;;;-146.18;100.00;67994.34;10207319;28;20045;-75
2023/05/12 07:08:57;;;;;;;9.98;9.07;;;;;;;-146.18;100.00;67994.34;10202490;28;20050;-75
2023/05/12 07:13:53;;;;;;;9.75;9.00;;;;;;;-146.18;100.00;67994.34;10206220;28;20140;-75
2023/05/12 07:18:50;;;;;;;9.90;8.98;;;;;;;-146.18;100.00;67994.34;10200336;28;20064;-75
2023/05/12 07:23:46;;;;;;;10.45;9.13;;;;;;;-146.18;100.00;67994.34;10201677;28;20096;-76
2023/05/12 07:28:43;;;;;;;9.15;8.35;;;;;;;-146.18;100.00;67994.34;10198281;28;20149;-75
2023/05/12 07:33:39;;;;;;;9.48;8.48;;;;;;;-146.18;100.00;67994.34;10203364;28;20121;-75
2023/05/12 07:38:36;;;;;;;10.70;9.32;;;;;;;-146.18;100.00;67994.34;10237907;28;20071;-75
2023/05/12 07:43:32;;;;;;;9.98;8.98;;;;;;;-146.18;100.00;67994.34;10202176;28;20621;-76
2023/05/12 07:48:29;;;;;;;9.45;8.55;;;;;;;-146.18;100.00;67994.34;10223741;28;20054;-75
2023/05/12 07:53:25;;;;;;;11.30;8.95;;;;;;;-146.18;100.00;67994.34;10200665;28;20487;-75
2023/05/12 07:58:22;;;;;;;9.45;8.65;;;;;;;-146.18;100.00;67994.34;10219580;28;20054;-75
2023/05/12 08:03:19;;;;;;;9.88;8.80;;;;;;;-146.18;100.00;67994.34;10198840;28;20057;-75
2023/05/12 08:08:15;;;;;;;9.75;8.95;;;;;;;-146.18;100.00;67994.34;10206151;28;20050;-75
2023/05/12 08:13:12;;;;;;;10.85;8.85;;;;;;;-146.18;100.00;67994.34;10197799;28;20054;-75
2023/05/12 08:18:08;;;;;;;9.70;8.80;;;;;;;-146.18;100.00;67994.34;10236645;28;20157;-75
2023/05/12 08:23:05;;;;;;;11.57;10.07;;;;;;;-146.18;100.00;67994.34;10212075;28;20096;-75
2023/05/12 08:28:02;;;;;;;7.97;7.28;;;;;;;-146.18;100.00;67994.34;10236253;28;20128;-75
2023/05/12 08:32:58;;;;;;;8.55;7.78;;;;;;;-146.18;100.00;67994.34;10197590;28;20206;-75
2023/05/12 08:37:56;;;;;;;7.95;7.15;;;;;;;-146.18;100.00;67994.34;10232897;28;21034;-75
2023/05/12 08:43:23;;;;;;;10.07;9.00;;;;;;;-146.18;100.00;67994.34;10195905;28;20130;-75
2023/05/12 08:48:20;;;;;;;9.88;8.80;;;;;;;-146.18;100.00;67994.34;10195759;28;20088;-75
2023/05/12 08:53:19;;;;;;;9.90;8.00;;;;;;;-146.18;100.00;67994.34;10197169;28;20514;-75
2023/05/12 08:58:16;;;;;;;10.60;9.18;;;;;;;-146.18;100.00;67994.34;10217756;28;20519;-74
2023/05/12 09:03:13;;;;;;;9.27;8.38;;;;;;;-146.18;100.00;67994.34;10195200;28;20073;-75
2023/05/12 09:08:10;;;;;;;10.57;8.52;;;;;;;-146.18;100.00;67994.34;10194719;28;20053;-75
2023/05/12 09:13:16;;;;;;;10.98;9.00;;;;;;;-146.18;100.00;67994.34;10195128;28;20042;-75
2023/05/12 09:18:12;;;;;;;9.10;8.20;;;;;;;-146.18;100.00;67994.34;10196775;28;20061;-74
2023/05/12 09:23:19;;;;;;;9.63;7.70;;;;;;;-146.18;100.00;67994.34;10195223;28;20518;-75
2023/05/12 09:28:16;;;;;;;8.63;7.80;;;;;;;-146.18;100.00;67994.34;10216841;28;20061;-75
2023/05/12 09:33:12;;;;;;;8.13;7.43;;;;;;;-146.18;100.00;67994.34;10212416;28;20046;-76
2023/05/12 09:38:12;;;;;;;9.13;8.25;;;;;;;-146.18;100.00;67994.34;10233797;28;20688;-75
2023/05/12 09:43:11;;;;;;;10.30;8.03;;;;;;;-146.18;100.00;67994.34;10196550;28;20142;-75
2023/05/12 09:48:12;;;;;;;8.07;7.28;;;;;;;-146.18;100.00;67994.34;10232660;28;20165;-75
2023/05/12 09:53:10;;;;;;;8.65;7.80;;;;;;;-146.18;100.00;67994.34;10233750;28;20072;-75
2023/05/12 09:58:09;;;;;;;9.85;7.70;;;;;;;-146.18;100.00;67994.34;10207125;28;20081;-75
2023/05/12 10:03:17;;;;;;;8.18;7.38;;;;;;;-146.18;100.00;67994.34;10192370;28;20073;-75
2023/05/12 10:08:20;;;;;;;8.13;7.32;;;;;;;-146.18;100.00;67994.34;10201155;28;20054;-75
2023/05/12 10:13:17;;;;;;;12.23;8.65;;;;;;;-146.18;100.00;67994.34;10194881;28;20056;-75
2023/05/12 10:18:14;;;;;;;8.45;7.78;;;;;;;-146.18;100.00;67994.34;10199306;28;20050;-75
2023/05/12 10:23:12;;;;;;;9.35;8.55;;;;;;;-146.18;100.00;67994.34;10193796;28;20427;-75
2023/05/12 10:28:09;;;;;;;8.82;8.07;;;;;;;-146.18;100.00;67994.34;10198660;28;20551;-75
2023/05/12 10:33:07;;;;;;;8.90;8.10;;;;;;;-146.18;100.00;67994.34;10200922;28;20080;-75
2023/05/12 10:38:06;;;;;;;10.18;8.57;;;;;;;-146.18;100.00;67994.34;10240617;28;20059;-75
2023/05/12 10:43:03;;;;;;;12.10;8.48;;;;;;;-146.18;100.00;67994.34;10218074;28;20042;-74
2023/05/12 10:48:06;;;;;;;9.18;8.38;;;;;;;-146.18;100.00;67994.34;10199881;28;20050;-74
2023/05/12 10:53:05;;;;;;;8.02;7.32;;;;;;;-146.18;100.00;67994.34;10199890;28;22042;-75
2023/05/12 10:58:13;;;;;;;8.90;8.10;;;;;;;-146.18;100.00;67994.34;10199354;28;20057;-75
2023/05/12 11:03:15;;;;;;;9.00;8.10;;;;;;;-146.18;100.00;67994.34;10200467;28;20050;-75
2023/05/12 11:08:17;;;;;;;8.60;7.63;;;;;;;-146.18;100.00;67994.34;10238732;28;20507;-75
2023/05/12 11:13:16;;;;;;;9.05;7.50;;;;;;;-146.18;100.00;67994.34;10239922;28;20530;-75
2023/05/12 11:18:12;;;;;;;10.38;8.00;;;;;;;-146.18;100.00;67994.34;10229159;28;20053;-75
2023/05/12 11:23:09;;;;;;;9.02;8.10;;;;;;;-146.18;100.00;67994.34;10199778;28;20046;-75
2023/05/12 11:28:09;;;;;;;9.48;8.48;;;;;;;-146.18;100.00;67994.34;10217507;28;20052;-75
2023/05/12 11:33:06;;;;;;;8.55;7.72;;;;;;;-146.18;100.00;67994.34;10199027;28;20061;-75
2023/05/12 11:38:14;;;;;;;8.98;8.13;;;;;;;-146.18;100.00;67994.34;10201935;28;20133;-75
2023/05/12 11:43:18;;;;;;;9.02;8.32;;;;;;;-146.18;100.00;67994.34;10199130;28;20485;-75
2023/05/12 11:48:15;;;;;;;8.57;7.78;;;;;;;-146.18;100.00;67994.34;10238395;28;20132;-74
2023/05/12 11:53:14;;;;;;;8.23;7.63;;;;;;;-146.18;100.00;67994.34;10211237;28;20104;-75
2023/05/12 11:58:19;;;;;;;9.77;7.35;;;;;;;-146.18;100.00;67994.34;10237740;28;20132;-75
2023/05/12 12:03:15;;;;;;;8.23;7.43;;;;;;;-146.18;100.00;67994.34;10202437;28;20057;-75
2023/05/12 12:08:14;;;;;;;8.30;7.50;;;;;;;-146.18;100.00;67994.34;10235847;28;20053;-75
2023/05/12 12:13:12;;;;;;;8.63;7.65;;;;;;;-146.18;100.00;67994.34;10198236;28;20054;-75
2023/05/12 12:18:09;;;;;;;8.45;7.63;;;;;;;-146.18;100.00;67994.34;10215752;28;20531;-75
2023/05/12 12:23:05;;;;;;;9.25;8.45;;;;;;;-146.18;100.00;67994.34;10234037;28;20054;-75
2023/05/12 12:28:02;;;;;;;7.85;7.15;;;;;;;-146.18;100.00;67994.34;10210294;28;20100;-75
2023/05/12 12:32:59;;;;;;;7.82;7.07;;;;;;;-146.18;100.00;67994.34;10196292;28;20470;-76
2023/05/12 12:37:55;;;;;;;8.50;7.78;;;;;;;-146.18;100.00;67994.34;10235498;28;20081;-76
2023/05/12 12:42:52;;;;;;;8.70;7.82;;;;;;;-146.18;100.00;67994.34;10229821;28;20049;-76
2023/05/12 12:47:53;;;;;;;8.05;7.30;;;;;;;-146.18;100.00;67994.34;10234382;28;20057;-75
2023/05/12 12:52:50;;;;;;;8.03;7.23;;;;;;;-146.18;100.00;67994.34;10225524;28;20420;-75
2023/05/12 12:57:46;;;;;;;8.15;7.45;;;;;;;-146.18;100.00;67994.34;10233841;28;20069;-75
2023/05/12 13:02:43;;;;;;;8.23;7.28;;;;;;;-146.18;100.00;67994.34;10221738;28;20093;-75
2023/05/12 13:07:40;;;;;;;9.93;7.22;;;;;;;-146.18;100.00;67994.34;10232544;28;20080;-75
2023/05/12 13:12:36;;;;;;;8.05;7.10;;;;;;;-146.18;100.00;67994.34;10208623;28;20060;-75
2023/05/12 13:17:33;;;;;;;8.00;7.10;;;;;;;-146.18;100.00;67994.34;10231570;28;20124;-75
2023/05/12 13:22:29;;;;;;;7.57;6.97;;;;;;;-146.18;100.00;67994.34;10198649;28;20530;-75
2023/05/12 13:27:26;;;;;;;8.98;7.30;;;;;;;-146.18;100.00;67994.34;10228051;28;20076;-75
2023/05/12 13:32:22;;;;;;;7.80;7.10;;;;;;;-146.18;100.00;67994.34;10194624;28;20050;-75
2023/05/12 13:37:19;;;;;;;7.60;6.40;;;;;;;-146.18;100.00;67994.34;10221575;28;20760;-75
2023/05/12 13:42:16;;;;;;;7.90;7.10;;;;;;;-146.18;100.00;67994.34;10194076;28;20053;-75
2023/05/12 13:47:17;;;;;;;8.73;6.93;;;;;;;-146.18;100.00;67994.34;10198531;28;20149;-75
2023/05/12 13:52:15;;;;;;;7.78;7.00;;;;;;;-146.18;100.00;67994.34;10193725;28;20049;-75
2023/05/12 13:57:11;;;;;;;10.93;7.40;;;;;;;-146.18;100.00;67994.34;10226865;28;20064;-75
2023/05/12 14:02:10;;;;;;;7.82;7.00;;;;;;;-146.18;100.00;67994.34;10223830;28;20553;-76
2023/05/12 14:07:06;;;;;;;8.20;7.40;;;;;;;-146.18;100.00;67994.34;10225970;28;20490;-75
2023/05/12 14:12:04;;;;;;;7.72;7.03;;;;;;;-146.18;100.00;67994.34;10204821;28;20116;-75
2023/05/12 14:17:01;;;;;;;7.80;7.13;;;;;;;-146.18;100.00;67994.34;10225042;28;20084;-75
2023/05/12 14:21:58;;;;;;;7.82;7.10;;;;;;;-146.18;100.00;67994.34;10201506;28;20052;-75
2023/05/12 14:27:01;;;;;;;9.40;6.90;;;;;;;-146.18;100.00;67994.34;10215520;28;20049;-74
2023/05/12 14:31:58;;;;;;;8.70;7.57;;;;;;;-146.18;100.00;67994.34;10192768;28;20146;-74
2023/05/12 14:36:55;;;;;;;7.80;7.20;;;;;;;-146.18;100.00;67994.34;10213795;28;20133;-74
2023/05/12 14:41:52;;;;;;;8.48;7.70;;;;;;;-146.18;100.00;67994.34;10192698;28;20051;-74
2023/05/12 14:46:48;;;;;;;8.80;7.88;;;;;;;-146.18;100.00;67994.34;10211002;28;20080;-75
2023/05/12 14:51:45;;;;;;;9.07;7.78;;;;;;;-146.18;100.00;67994.34;10192505;28;20137;-75
2023/05/12 14:56:45;;;;;;;12.02;7.10;;;;;;;-146.18;100.00;67994.34;10210495;28;20053;-74
2023/05/12 15:01:41;;;;;;;8.18;7.38;;;;;;;-146.18;100.00;67994.34;10192334;28;20046;-74
2023/05/12 15:06:38;;;;;;;7.72;7.03;;;;;;;-146.18;100.00;67994.34;10197663;28;20060;-74
2023/05/12 15:11:35;;;;;;;7.70;7.00;;;;;;;-146.18;100.00;67994.34;10192428;28;20112;-74
2023/05/12 15:16:32;;;;;;;9.35;8.18;;;;;;;-146.18;100.00;67994.34;10225809;28;20050;-74
2023/05/12 15:21:28;;;;;;;10.05;7.95;;;;;;;-146.18;100.00;67994.34;10236107;28;20096;-75
2023/05/12 15:26:25;;;;;;;8.00;7.30;;;;;;;-146.18;100.00;67994.34;10238922;28;20057;-75
2023/05/12 15:31:29;;;;;;;7.88;7.07;;;;;;;-146.18;100.00;67994.34;10203866;28;20065;-74
2023/05/12 15:36:26;;;;;;;9.02;7.70;;;;;;;-146.18;100.00;67994.34;10212361;28;20053;-74
2023/05/12 15:41:22;;;;;;;7.57;6.95;;;;;;;-146.18;100.00;67994.34;10198915;28;20138;-74
2023/05/12 15:46:20;;;;;;;8.05;7.25;;;;;;;-146.18;100.00;67994.34;10229660;28;20085;-74
2023/05/12 15:51:16;;;;;;;7.90;7.20;;;;;;;-146.18;100.00;67994.34;10234135;28;20053;-74
2023/05/12 15:56:13;;;;;;;8.55;7.75;;;;;;;-146.18;100.00;67994.34;10222859;28;20084;-74
2023/05/12 16:01:09;;;;;;;8.30;7.40;;;;;;;-146.18;100.00;67994.34;10227297;28;20073;-74
2023/05/12 16:06:06;;;;;;;9.07;7.60;;;;;;;-146.18;100.00;67994.34;10201489;28;20454;-75
2023/05/12 16:11:04;;;;;;;8.20;7.50;;;;;;;-146.18;100.00;67994.34;10197677;28;20080;-75
2023/05/12 16:16:01;;;;;;;8.05;7.45;;;;;;;-146.18;100.00;67994.34;10221336;28;20418;-74
2023/05/12 16:20:58;;;;;;;28.73;23.58;;;;;;;-146.18;100.00;67994.34;10237221;28;20053;-75
2023/05/12 16:25:54;;;;;;;11.88;10.77;;;;;;;-146.18;100.00;67994.34;10231414;28;20249;-74
2023/05/12 16:30:51;;;;;;;11.98;10.25;;;;;;;-146.18;100.00;67994.34;10236916;28;20097;-75
2023/05/12 16:35:48;;;;;;;9.45;8.63;;;;;;;-146.18;100.00;67994.34;10220368;28;20495;-75
2023/05/12 16:40:44;;;;;;;9.90;8.90;;;;;;;-146.18;100.00;67994.34;10230417;28;20524;-74
2023/05/12 16:45:41;;;;;;;9.15;8.13;;;;;;;-146.18;100.00;67994.34;10217152;28;20068;-75
2023/05/12 16:50:37;;;;;;;9.15;8.13;;;;;;;-146.18;100.00;67994.34;10216850;28;20076;-74
2023/05/12 16:55:34;;;;;;;8.63;7.68;;;;;;;-146.18;100.00;67994.34;10216408;28;20574;-75
2023/05/12 17:00:30;;;;;;;8.38;7.68;;;;;;;-146.18;100.00;67994.34;10207612;28;20507;-75
2023/05/12 17:05:27;;;;;;;8.85;7.97;;;;;;;-146.18;100.00;67994.34;10206821;28;20057;-75
2023/05/12 17:10:23;;;;;;;10.00;7.90;;;;;;;-146.18;100.00;67994.34;10195394;28;20064;-75
2023/05/12 17:15:20;;;;;;;8.05;7.45;;;;;;;-146.18;100.00;67994.34;10203380;28;20050;-74
2023/05/12 17:20:16;;;;;;;8.68;7.28;;;;;;;-146.18;100.00;67994.34;10195124;28;20065;-74
2023/05/12 17:25:13;;;;;;;11.35;7.53;;;;;;;-146.18;100.00;67994.34;10212180;28;20654;-74
2023/05/12 17:30:09;;;;;;;9.45;7.32;;;;;;;-146.18;100.00;67994.34;10235022;28;20076;-74
2023/05/12 17:35:07;;;;;;;9.35;7.55;;;;;;;-146.18;100.00;67994.34;10226673;28;20053;-74
2023/05/12 17:40:06;;;;;;;7.95;7.15;;;;;;;-146.18;100.00;67994.34;10234630;28;20064;-74
2023/05/12 17:45:03;;;;;;;8.88;7.97;;;;;;;-146.18;100.00;67994.34;10212425;28;20136;-75
2023/05/12 17:50:00;;;;;;;9.57;7.63;;;;;;;-146.18;100.00;67994.34;10224669;28;20060;-75
2023/05/12 17:54:56;;;;;;;8.20;7.38;;;;;;;-146.18;100.00;67994.34;10208833;28;20076;-75
2023/05/12 17:59:53;;;;;;;7.55;6.85;;;;;;;-146.18;100.00;67994.34;10211197;28;20061;-75
2023/05/12 18:04:49;;;;;;;8.90;6.93;;;;;;;-146.18;100.00;67994.34;10203137;28;20072;-74
2023/05/12 18:09:46;;;;;;;10.35;7.05;;;;;;;-146.18;100.00;67994.34;10232836;28;20057;-74
2023/05/12 18:14:42;;;;;;;8.90;7.28;;;;;;;-146.18;100.00;67994.34;10225711;28;20046;-75
2023/05/12 18:19:38;;;;;;;6.97;6.38;;;;;;;-146.18;100.00;67994.34;10192960;28;20129;-75
2023/05/12 18:24:35;;;;;;;8.48;6.80;;;;;;;-146.18;100.00;67994.34;10205307;28;20547;-74
2023/05/12 18:29:32;;;;;;;8.38;6.85;;;;;;;-146.18;100.00;67994.34;10230983;28;20455;-76
2023/05/12 18:34:29;;;;;;;7.95;6.85;;;;;;;-146.18;100.00;67994.34;10204338;28;20055;-74
2023/05/12 18:39:25;;;;;;;11.90;6.78;;;;;;;-146.18;100.00;67994.34;10210387;28;20050;-74
2023/05/12 18:44:22;;;;;;;7.70;6.30;;;;;;;-146.18;100.00;67994.34;10232803;28;20112;-74
2023/05/12 18:49:18;;;;;;;9.98;6.50;;;;;;;-146.18;100.00;67994.34;10209773;28;20084;-76
2023/05/12 18:54:15;;;;;;;8.13;6.97;;;;;;;-146.18;100.00;67994.34;10211471;28;20766;-74
2023/05/12 18:59:11;;;;;;;11.80;6.82;;;;;;;-146.18;100.00;67994.34;10215002;28;20109;-74
2023/05/12 19:04:08;;;;;;;8.00;7.28;;;;;;;-146.18;100.00;67994.34;10207962;28;20065;-75
2023/05/12 19:09:05;;;;;;;8.80;7.90;;;;;;;-146.18;100.00;67994.34;10199105;28;20136;-75
2023/05/12 19:14:01;;;;;;;9.30;6.55;;;;;;;-146.18;100.00;67994.34;10199483;28;20081;-75
2023/05/12 19:18:58;;;;;;;9.48;7.40;;;;;;;-146.18;100.00;67994.34;10198993;28;20104;-75
2023/05/12 19:23:55;;;;;;;9.40;8.38;;;;;;;-146.18;100.00;67994.34;10206222;28;20096;-75
2023/05/12 19:28:51;;;;;;;11.88;7.47;;;;;;;-146.18;100.00;67994.34;10238716;28;20069;-75
2023/05/12 19:33:48;;;;;;;12.77;8.00;;;;;;;-146.18;100.00;67994.34;10237815;28;20053;-75
2023/05/12 19:38:44;;;;;;;8.45;7.07;;;;;;;-146.18;100.00;67994.34;10227301;28;20054;-75
2023/05/12 19:43:40;;;;;;;8.88;6.93;;;;;;;-146.18;100.00;67994.34;10203186;28;20046;-75
2023/05/12 19:48:37;;;;;;;14.48;7.70;;;;;;;-146.18;100.00;67994.34;10219195;28;20727;-75
2023/05/12 19:53:33;;;;;;;11.35;7.55;;;;;;;-146.18;100.00;67994.34;10201865;28;20099;-75
2023/05/12 19:58:30;;;;;;;11.45;7.65;;;;;;;-146.18;100.00;67994.34;10217048;28;20530;-75
2023/05/12 20:03:27;;;;;;;8.73;7.63;;;;;;;-146.18;100.00;67994.34;10200828;28;20098;-75
2023/05/12 20:08:23;;;;;;;9.40;7.55;;;;;;;-146.18;100.00;67994.34;10206611;28;20078;-75
2023/05/12 20:13:19;;;;;;;8.52;7.45;;;;;;;-146.18;100.00;67994.34;10198229;28;20073;-75
2023/05/12 20:18:16;;;;;;;11.18;7.78;;;;;;;-146.18;100.00;67994.34;10236980;28;20148;-75
2023/05/12 20:23:12;;;;;;;9.02;7.85;;;;;;;-146.18;100.00;67994.34;10216513;28;20053;-75
2023/05/12 20:28:10;;;;;;;12.23;8.32;;;;;;;-146.18;100.00;67994.34;10236332;28;20049;-75
2023/05/12 20:33:07;;;;;;;12.48;8.82;;;;;;;-146.18;100.00;67994.34;10212360;28;20138;-75
2023/05/12 20:38:03;;;;;;;8.40;7.28;;;;;;;-146.18;100.00;67994.34;10236121;28;20049;-75
2023/05/12 20:43:00;;;;;;;9.75;8.18;;;;;;;-146.18;100.00;67994.34;10203447;28;20062;-75
2023/05/12 20:47:56;;;;;;;9.23;7.60;;;;;;;-146.18;100.00;67994.34;10229787;28;20052;-75
2023/05/12 20:52:53;;;;;;;10.38;7.75;;;;;;;-146.18;100.00;67994.34;10194727;28;20053;-75
2023/05/12 20:57:49;;;;;;;10.70;7.85;;;;;;;-146.18;100.00;67994.34;10210267;28;20050;-75
2023/05/12 21:02:48;;;;;;;9.38;6.55;;;;;;;-146.18;100.00;67994.34;10195041;28;20415;-75
2023/05/12 21:07:45;;;;;;;7.78;6.95;;;;;;;-146.18;100.00;67994.34;10233097;28;20060;-74
2023/05/12 21:12:41;;;;;;;7.30;6.60;;;;;;;-146.18;100.00;67994.34;10229600;28;20072;-75
2023/05/12 21:17:38;;;;;;;8.57;7.57;;;;;;;-146.18;100.00;67994.34;10214507;28;20073;-74
2023/05/12 21:22:36;;;;;;;9.23;6.55;;;;;;;-146.18;100.00;67994.34;10222996;28;20060;-74
2023/05/12 21:27:32;;;;;;;12.68;6.95;;;;;;;-146.18;100.00;67994.34;10230814;28;20503;-75
2023/05/12 21:32:29;;;;;;;10.75;6.95;;;;;;;-146.18;100.00;67994.34;10210305;28;20046;-75
2023/05/12 21:37:25;;;;;;;10.25;7.30;;;;;;;-146.18;100.00;67994.34;10229099;28;20104;-75
2023/05/12 21:42:21;;;;;;;12.32;7.20;;;;;;;-146.18;100.00;67994.34;10204450;28;20070;-75
2023/05/12 21:47:18;;;;;;;10.65;7.72;;;;;;;-146.18;100.00;67994.34;10187164;28;20046;-75
2023/05/12 21:52:14;;;;;;;8.45;7.00;;;;;;;-146.18;100.00;67994.34;10176466;28;20074;-75
2023/05/12 21:57:11;;;;;;;9.82;7.70;;;;;;;-146.18;100.00;67994.34;10215167;28;20140;-74
2023/05/12 22:02:07;;;;;;;14.13;7.55;;;;;;;-146.18;100.00;67994.34;10193255;28;20057;-74
2023/05/12 22:07:04;;;;;;;8.52;6.55;;;;;;;-146.18;100.00;67994.34;10206692;28;20069;-74
2023/05/12 22:12:01;;;;;;;11.15;7.10;;;;;;;-146.18;100.00;67994.34;10193090;28;20560;-74